Lorissa Jane — WDI4887 — position and weather

sailwx.info

Track history (hours):
 
Tides and Currents Weather Stations Pressure Air Temp Water Temp Dewpoint Dewpoint Depression Visibility Wind Speed Wind Dir Waves Ship Positions

Lorissa Jane

Owner: NGL Marine, LLC, Deer Park, TX. More information available from US FCC via Universal Licensing System and Coast Guard Vessel Documentation Center.

Last reported at 2018-Feb-16 03:09 UTC. Time now 2018-Feb-21 09:06 UTC.
Position N 29°34' W 090°29'.

; draft 3.1 m.

Type: Towing. MMSI: 367703080.

Date/timePositionNaut miles runAvg speedWind from/ knotsBaromVisibWave heightAir tempDewpointWater temp
2018-Feb-16 03:09N 29°34' W 090°29'1 5.9
2018-Feb-16 03:00N 29°34' W 090°30'3 5.6
2018-Feb-16 02:30N 29°34' W 090°33'3 5.4
2018-Feb-16 02:00N 29°35' W 090°36'3 5.3
2018-Feb-16 01:30N 29°36' W 090°39'3 5.3
2018-Feb-16 01:00N 29°37' W 090°42'2 4.0
2018-Feb-16 00:30N 29°35' W 090°43'2 3.8
2018-Feb-16 00:00N 29°34' W 090°45'0 0.0
2018-Feb-15 23:30N 29°34' W 090°45'1 1.6
2018-Feb-15 23:00N 29°33' W 090°45'2 4.2
2018-Feb-15 22:30N 29°32' W 090°47'5 6.4
2018-Feb-15 21:45N 29°32' W 090°53'61 2.3
2018-Feb-14 19:33N 29°50' W 091°60'0 4.9
2018-Feb-14 19:30N 29°50' W 091°60'2 4.5
2018-Feb-14 19:00N 29°49' W 092°02'3 5.4
2018-Feb-14 18:30N 29°48' W 092°05'3 5.4
2018-Feb-14 18:00N 29°47' W 092°08'3 5.2
2018-Feb-14 17:30N 29°47' W 092°11'1 1.0
2018-Feb-14 16:58N 29°47' W 092°12'0 0.0
2018-Feb-14 16:30N 29°47' W 092°12'0 0.0
2018-Feb-14 16:00N 29°47' W 092°12'0 0.0
2018-Feb-14 15:30N 29°47' W 092°12'0 0.0
2018-Feb-14 14:59N 29°47' W 092°12'0 0.0
2018-Feb-14 14:30N 29°47' W 092°12'0 0.0
2018-Feb-14 14:00N 29°47' W 092°12'0 0.0
2018-Feb-14 13:30N 29°47' W 092°12'0 0.0
2018-Feb-14 13:00N 29°47' W 092°12'0 0.0
2018-Feb-14 12:30N 29°47' W 092°12'0 0.0
2018-Feb-14 12:00N 29°47' W 092°12'0 0.0
2018-Feb-14 11:30N 29°47' W 092°12'0 0.0
2018-Feb-14 11:00N 29°47' W 092°12'0 0.0
2018-Feb-14 10:30N 29°47' W 092°12'0 0.0
2018-Feb-14 10:00N 29°47' W 092°12'0 0.0
2018-Feb-14 09:30N 29°47' W 092°12'0 0.0
2018-Feb-14 09:00N 29°47' W 092°12'0 0.0
2018-Feb-14 08:30N 29°47' W 092°12'0 0.0
2018-Feb-14 08:00N 29°47' W 092°12'0 0.2
2018-Feb-14 07:30N 29°47' W 092°12'2 3.6
2018-Feb-14 07:00N 29°48' W 092°14'2 3.9
2018-Feb-14 06:30N 29°48' W 092°16'2 3.7
2018-Feb-14 06:00N 29°49' W 092°18'1 2.5
2018-Feb-14 05:30N 29°50' W 092°19'3 4.9
2018-Feb-14 04:58N 29°51' W 092°22'38 4.3
2018-Feb-13 20:14N 29°56' W 093°05'1 4.8
2018-Feb-13 20:00N 29°56' W 093°06'2 5.0
2018-Feb-13 19:30N 29°56' W 093°09'2 4.8
2018-Feb-13 19:00N 29°58' W 093°11'2 4.5
2018-Feb-13 18:30N 29°59' W 093°13'2 4.0
2018-Feb-13 18:00N 30°01' W 093°14'2 3.2
2018-Feb-13 17:30N 30°02' W 093°15'0 0.2
2018-Feb-13 17:00N 30°02' W 093°15'1 2.0
2018-Feb-13 16:30N 30°03' W 093°16'1 2.8
2018-Feb-13 15:59N 30°04' W 093°16'2 3.2
2018-Feb-13 15:30N 30°05' W 093°18'1 1.5
2018-Feb-13 15:00N 30°06' W 093°18'0 0.6
2018-Feb-13 14:30N 30°06' W 093°19'2 3.8
2018-Feb-13 14:00N 30°05' W 093°20'2 3.0
2018-Feb-13 13:30N 30°04' W 093°21'1 2.7
2018-Feb-13 13:00N 30°04' W 093°23'0 0.0
2018-Feb-13 12:30N 30°04' W 093°23'0 0.2
2018-Feb-13 12:00N 30°04' W 093°23'0 0.4
2018-Feb-13 11:30N 30°04' W 093°23'2 4.3
2018-Feb-13 11:00N 30°04' W 093°26'2 4.7
2018-Feb-13 10:30N 30°04' W 093°28'2 4.0
2018-Feb-13 09:57N 30°04' W 093°31'3 4.5
2018-Feb-13 09:20N 30°04' W 093°34'2 4.6
2018-Feb-13 09:00N 30°04' W 093°36'3 5.0
2018-Feb-13 08:30N 30°04' W 093°39'3 5.1
2018-Feb-13 07:59N 30°04' W 093°42'2 4.2
2018-Feb-13 07:30N 30°03' W 093°44'2 4.1
2018-Feb-13 07:00N 30°01' W 093°45'2 4.9
2018-Feb-13 06:30N 29°59' W 093°47'3 6.4
2018-Feb-13 06:00N 29°58' W 093°51'2 3.6
2018-Feb-13 05:30N 29°57' W 093°52'3 6.6
2018-Feb-13 05:00N 29°54' W 093°54'3 6.5
2018-Feb-13 04:30N 29°52' W 093°56'3 5.6
2018-Feb-13 04:00N 29°49' W 093°58'2 3.4
2018-Feb-13 03:30N 29°48' W 094°00'3 5.1
2018-Feb-13 03:00N 29°47' W 094°02'2 5.0
2018-Feb-13 02:30N 29°45' W 094°04'3 5.0
2018-Feb-13 02:00N 29°43' W 094°07'3 5.2
2018-Feb-13 01:30N 29°42' W 094°09'2 4.7
2018-Feb-13 01:00N 29°41' W 094°12'3 4.9
2018-Feb-13 00:26N 29°40' W 094°14'  
2018-Feb-07 09:27N 29°40' W 094°15'0 0.0
2018-Feb-07 09:01N 29°40' W 094°15'0 0.0
2018-Feb-07 08:30N 29°40' W 094°15'0 0.0
2018-Feb-07 08:00N 29°40' W 094°15'0 0.0
2018-Feb-07 07:30N 29°40' W 094°15'0 0.0
2018-Feb-07 07:00N 29°40' W 094°15'0 0.0
2018-Feb-07 06:30N 29°40' W 094°15'0 0.0
2018-Feb-07 06:00N 29°40' W 094°15'0 0.0
2018-Feb-07 05:30N 29°40' W 094°15'0 0.0
2018-Feb-07 05:00N 29°40' W 094°15'0 0.0
2018-Feb-07 04:30N 29°40' W 094°15'0 0.1
2018-Feb-07 03:59N 29°40' W 094°15'0 0.1
2018-Feb-07 03:30N 29°40' W 094°15'0 0.0
2018-Feb-07 03:00N 29°40' W 094°15'0 0.0
2018-Feb-07 02:30N 29°40' W 094°15'0 0.0
2018-Feb-07 02:00N 29°40' W 094°15'0 0.0
2018-Feb-07 01:30N 29°40' W 094°15'0 0.0
2018-Feb-07 01:00N 29°40' W 094°15'0 0.0
2018-Feb-07 00:30N 29°40' W 094°15'0 0.0
2018-Feb-06 23:58N 29°40' W 094°15'0 0.0
2018-Feb-06 23:28N 29°40' W 094°15'0 0.0
2018-Feb-06 22:53N 29°40' W 094°15'0 0.0
2018-Feb-06 22:30N 29°40' W 094°15'0 0.0
2018-Feb-06 21:58N 29°40' W 094°15'0 0.0
2018-Feb-06 21:30N 29°40' W 094°15'0 0.0
2018-Feb-06 21:00N 29°40' W 094°15'2 4.5
2018-Feb-06 20:30N 29°41' W 094°13'3 6.4
2018-Feb-06 20:00N 29°42' W 094°09'3 6.7
2018-Feb-06 19:30N 29°44' W 094°06'3 6.9
2018-Feb-06 19:00N 29°46' W 094°03'4 7.0
2018-Feb-06 18:30N 29°48' W 094°00'1 3.0
2018-Feb-06 18:00N 29°49' W 093°59'0 0.0
2018-Feb-06 17:30N 29°49' W 093°59'0 0.0
2018-Feb-06 17:00N 29°49' W 093°59'0 0.0
2018-Feb-06 16:30N 29°49' W 093°59'0 0.0
2018-Feb-06 16:00N 29°49' W 093°59'0 0.0
2018-Feb-06 15:30N 29°49' W 093°59'0 0.0
2018-Feb-06 15:00N 29°49' W 093°59'0 0.0
2018-Feb-06 14:00N 29°49' W 093°59'0 0.0
2018-Feb-06 13:30N 29°49' W 093°59'0 0.0
2018-Feb-06 13:00N 29°49' W 093°59'0 0.0
2018-Feb-06 12:00N 29°49' W 093°59'0 0.0
2018-Feb-06 11:00N 29°49' W 093°59'0 0.0
2018-Feb-06 10:30N 29°49' W 093°59'0 0.0
2018-Feb-06 09:59N 29°49' W 093°59'0 0.0
2018-Feb-06 09:30N 29°49' W 093°59'0 0.0
2018-Feb-06 09:00N 29°49' W 093°59'0 0.0
2018-Feb-06 08:30N 29°49' W 093°59'0 0.0
2018-Feb-06 08:00N 29°49' W 093°59'0 0.0
2018-Feb-06 07:00N 29°49' W 093°59'0 0.0
2018-Feb-06 06:30N 29°49' W 093°59'0 0.0
2018-Feb-06 06:00N 29°49' W 093°59'0 0.0
2018-Feb-06 05:30N 29°49' W 093°59'0 0.0
2018-Feb-06 05:00N 29°49' W 093°59'0 0.0
2018-Feb-06 04:30N 29°49' W 093°59'0 0.0
2018-Feb-06 04:00N 29°49' W 093°59'0 0.0
2018-Feb-06 03:30N 29°49' W 093°59'  
Track history (hours):
 
Tides and Currents Weather Stations Pressure Air Temp Water Temp Dewpoint Dewpoint Depression Visibility Wind Speed Wind Dir Waves Ship Positions

Lorissa Jane

Owner: NGL Marine, LLC, Deer Park, TX. More information available from US FCC via Universal Licensing System and Coast Guard Vessel Documentation Center.

Last reported at 2018-Feb-16 03:09 UTC. Time now 2018-Feb-21 09:06 UTC.
Position N 29°34' W 090°29'.

; draft 3.1 m.

Type: Towing. MMSI: 367703080.

Date/timePositionNaut miles runAvg speedWind from/ knotsBaromVisibWave heightAir tempDewpointWater temp
2018-Feb-16 03:09N 29°34' W 090°29'1 5.9
2018-Feb-16 03:00N 29°34' W 090°30'3 5.6
2018-Feb-16 02:30N 29°34' W 090°33'3 5.4
2018-Feb-16 02:00N 29°35' W 090°36'3 5.3
2018-Feb-16 01:30N 29°36' W 090°39'3 5.3
2018-Feb-16 01:00N 29°37' W 090°42'2 4.0
2018-Feb-16 00:30N 29°35' W 090°43'2 3.8
2018-Feb-16 00:00N 29°34' W 090°45'0 0.0
2018-Feb-15 23:30N 29°34' W 090°45'1 1.6
2018-Feb-15 23:00N 29°33' W 090°45'2 4.2
2018-Feb-15 22:30N 29°32' W 090°47'5 6.4
2018-Feb-15 21:45N 29°32' W 090°53'61 2.3
2018-Feb-14 19:33N 29°50' W 091°60'0 4.9
2018-Feb-14 19:30N 29°50' W 091°60'2 4.5
2018-Feb-14 19:00N 29°49' W 092°02'3 5.4
2018-Feb-14 18:30N 29°48' W 092°05'3 5.4
2018-Feb-14 18:00N 29°47' W 092°08'3 5.2
2018-Feb-14 17:30N 29°47' W 092°11'1 1.0
2018-Feb-14 16:58N 29°47' W 092°12'0 0.0
2018-Feb-14 16:30N 29°47' W 092°12'0 0.0
2018-Feb-14 16:00N 29°47' W 092°12'0 0.0
2018-Feb-14 15:30N 29°47' W 092°12'0 0.0
2018-Feb-14 14:59N 29°47' W 092°12'0 0.0
2018-Feb-14 14:30N 29°47' W 092°12'0 0.0
2018-Feb-14 14:00N 29°47' W 092°12'0 0.0
2018-Feb-14 13:30N 29°47' W 092°12'0 0.0
2018-Feb-14 13:00N 29°47' W 092°12'0 0.0
2018-Feb-14 12:30N 29°47' W 092°12'0 0.0
2018-Feb-14 12:00N 29°47' W 092°12'0 0.0
2018-Feb-14 11:30N 29°47' W 092°12'0 0.0
2018-Feb-14 11:00N 29°47' W 092°12'0 0.0
2018-Feb-14 10:30N 29°47' W 092°12'0 0.0
2018-Feb-14 10:00N 29°47' W 092°12'0 0.0
2018-Feb-14 09:30N 29°47' W 092°12'0 0.0
2018-Feb-14 09:00N 29°47' W 092°12'0 0.0
2018-Feb-14 08:30N 29°47' W 092°12'0 0.0
2018-Feb-14 08:00N 29°47' W 092°12'0 0.2
2018-Feb-14 07:30N 29°47' W 092°12'2 3.6
2018-Feb-14 07:00N 29°48' W 092°14'2 3.9
2018-Feb-14 06:30N 29°48' W 092°16'2 3.7
2018-Feb-14 06:00N 29°49' W 092°18'1 2.5
2018-Feb-14 05:30N 29°50' W 092°19'3 4.9
2018-Feb-14 04:58N 29°51' W 092°22'38 4.3
2018-Feb-13 20:14N 29°56' W 093°05'1 4.8
2018-Feb-13 20:00N 29°56' W 093°06'2 5.0
2018-Feb-13 19:30N 29°56' W 093°09'2 4.8
2018-Feb-13 19:00N 29°58' W 093°11'2 4.5
2018-Feb-13 18:30N 29°59' W 093°13'2 4.0
2018-Feb-13 18:00N 30°01' W 093°14'2 3.2
2018-Feb-13 17:30N 30°02' W 093°15'0 0.2
2018-Feb-13 17:00N 30°02' W 093°15'1 2.0
2018-Feb-13 16:30N 30°03' W 093°16'1 2.8
2018-Feb-13 15:59N 30°04' W 093°16'2 3.2
2018-Feb-13 15:30N 30°05' W 093°18'1 1.5
2018-Feb-13 15:00N 30°06' W 093°18'0 0.6
2018-Feb-13 14:30N 30°06' W 093°19'2 3.8
2018-Feb-13 14:00N 30°05' W 093°20'2 3.0
2018-Feb-13 13:30N 30°04' W 093°21'1 2.7
2018-Feb-13 13:00N 30°04' W 093°23'0 0.0
2018-Feb-13 12:30N 30°04' W 093°23'0 0.2
2018-Feb-13 12:00N 30°04' W 093°23'0 0.4
2018-Feb-13 11:30N 30°04' W 093°23'2 4.3
2018-Feb-13 11:00N 30°04' W 093°26'2 4.7
2018-Feb-13 10:30N 30°04' W 093°28'2 4.0
2018-Feb-13 09:57N 30°04' W 093°31'3 4.5
2018-Feb-13 09:20N 30°04' W 093°34'2 4.6
2018-Feb-13 09:00N 30°04' W 093°36'3 5.0
2018-Feb-13 08:30N 30°04' W 093°39'3 5.1
2018-Feb-13 07:59N 30°04' W 093°42'2 4.2
2018-Feb-13 07:30N 30°03' W 093°44'2 4.1
2018-Feb-13 07:00N 30°01' W 093°45'2 4.9
2018-Feb-13 06:30N 29°59' W 093°47'3 6.4
2018-Feb-13 06:00N 29°58' W 093°51'2 3.6
2018-Feb-13 05:30N 29°57' W 093°52'3 6.6
2018-Feb-13 05:00N 29°54' W 093°54'3 6.5
2018-Feb-13 04:30N 29°52' W 093°56'3 5.6
2018-Feb-13 04:00N 29°49' W 093°58'2 3.4
2018-Feb-13 03:30N 29°48' W 094°00'3 5.1
2018-Feb-13 03:00N 29°47' W 094°02'2 5.0
2018-Feb-13 02:30N 29°45' W 094°04'3 5.0
2018-Feb-13 02:00N 29°43' W 094°07'3 5.2
2018-Feb-13 01:30N 29°42' W 094°09'2 4.7
2018-Feb-13 01:00N 29°41' W 094°12'3 4.9
2018-Feb-13 00:26N 29°40' W 094°14'  
2018-Feb-07 09:27N 29°40' W 094°15'0 0.0
2018-Feb-07 09:01N 29°40' W 094°15'0 0.0
2018-Feb-07 08:30N 29°40' W 094°15'0 0.0
2018-Feb-07 08:00N 29°40' W 094°15'0 0.0
2018-Feb-07 07:30N 29°40' W 094°15'0 0.0
2018-Feb-07 07:00N 29°40' W 094°15'0 0.0
2018-Feb-07 06:30N 29°40' W 094°15'0 0.0
2018-Feb-07 06:00N 29°40' W 094°15'0 0.0
2018-Feb-07 05:30N 29°40' W 094°15'0 0.0
2018-Feb-07 05:00N 29°40' W 094°15'0 0.0
2018-Feb-07 04:30N 29°40' W 094°15'0 0.1
2018-Feb-07 03:59N 29°40' W 094°15'0 0.1
2018-Feb-07 03:30N 29°40' W 094°15'0 0.0
2018-Feb-07 03:00N 29°40' W 094°15'0 0.0
2018-Feb-07 02:30N 29°40' W 094°15'0 0.0
2018-Feb-07 02:00N 29°40' W 094°15'0 0.0
2018-Feb-07 01:30N 29°40' W 094°15'0 0.0
2018-Feb-07 01:00N 29°40' W 094°15'0 0.0
2018-Feb-07 00:30N 29°40' W 094°15'0 0.0
2018-Feb-06 23:58N 29°40' W 094°15'0 0.0
2018-Feb-06 23:28N 29°40' W 094°15'0 0.0
2018-Feb-06 22:53N 29°40' W 094°15'0 0.0
2018-Feb-06 22:30N 29°40' W 094°15'0 0.0
2018-Feb-06 21:58N 29°40' W 094°15'0 0.0
2018-Feb-06 21:30N 29°40' W 094°15'0 0.0
2018-Feb-06 21:00N 29°40' W 094°15'2 4.5
2018-Feb-06 20:30N 29°41' W 094°13'3 6.4
2018-Feb-06 20:00N 29°42' W 094°09'3 6.7
2018-Feb-06 19:30N 29°44' W 094°06'3 6.9
2018-Feb-06 19:00N 29°46' W 094°03'4 7.0
2018-Feb-06 18:30N 29°48' W 094°00'1 3.0
2018-Feb-06 18:00N 29°49' W 093°59'0 0.0
2018-Feb-06 17:30N 29°49' W 093°59'0 0.0
2018-Feb-06 17:00N 29°49' W 093°59'0 0.0
2018-Feb-06 16:30N 29°49' W 093°59'0 0.0
2018-Feb-06 16:00N 29°49' W 093°59'0 0.0
2018-Feb-06 15:30N 29°49' W 093°59'0 0.0
2018-Feb-06 15:00N 29°49' W 093°59'0 0.0
2018-Feb-06 14:00N 29°49' W 093°59'0 0.0
2018-Feb-06 13:30N 29°49' W 093°59'0 0.0
2018-Feb-06 13:00N 29°49' W 093°59'0 0.0
2018-Feb-06 12:00N 29°49' W 093°59'0 0.0
2018-Feb-06 11:00N 29°49' W 093°59'0 0.0
2018-Feb-06 10:30N 29°49' W 093°59'0 0.0
2018-Feb-06 09:59N 29°49' W 093°59'0 0.0
2018-Feb-06 09:30N 29°49' W 093°59'0 0.0
2018-Feb-06 09:00N 29°49' W 093°59'0 0.0
2018-Feb-06 08:30N 29°49' W 093°59'0 0.0
2018-Feb-06 08:00N 29°49' W 093°59'0 0.0
2018-Feb-06 07:00N 29°49' W 093°59'0 0.0
2018-Feb-06 06:30N 29°49' W 093°59'0 0.0
2018-Feb-06 06:00N 29°49' W 093°59'0 0.0
2018-Feb-06 05:30N 29°49' W 093°59'0 0.0
2018-Feb-06 05:00N 29°49' W 093°59'0 0.0
2018-Feb-06 04:30N 29°49' W 093°59'0 0.0
2018-Feb-06 04:00N 29°49' W 093°59'0 0.0
2018-Feb-06 03:30N 29°49' W 093°59'  

Dump ship's entire track history